sensor_id;sensor_type;location;lat;lon;timestamp;P1;durP1;ratioP1;P2;durP2;ratioP2
19364;SDS011;9818;48.382;10.850;2022-09-13T06:40:13;3.37;;;1.63;;
19364;SDS011;9818;48.382;10.850;2022-09-13T06:42:41;2.10;;;1.60;;
19364;SDS011;9818;48.382;10.850;2022-09-13T06:45:10;1.53;;;1.43;;
19364;SDS011;9818;48.382;10.850;2022-09-13T06:47:39;4.25;;;1.70;;
19364;SDS011;9818;48.382;10.850;2022-09-13T06:50:10;1.50;;;1.40;;
19364;SDS011;9818;48.382;10.850;2022-09-13T06:52:39;1.60;;;1.50;;
19364;SDS011;9818;48.382;10.850;2022-09-13T06:55:08;1.90;;;1.23;;
19364;SDS011;9818;48.382;10.850;2022-09-13T06:57:37;2.27;;;1.40;;
19364;SDS011;9818;48.382;10.850;2022-09-13T07:00:06;1.70;;;1.30;;
19364;SDS011;9818;48.382;10.850;2022-09-13T07:02:36;1.50;;;1.30;;
19364;SDS011;9818;48.382;10.850;2022-09-13T07:05:05;1.20;;;1.10;;
19364;SDS011;9818;48.382;10.850;2022-09-13T07:07:37;1.40;;;1.30;;
19364;SDS011;9818;48.382;10.850;2022-09-13T07:10:06;1.20;;;1.00;;
19364;SDS011;9818;48.382;10.850;2022-09-13T07:12:36;2.07;;;1.30;;
19364;SDS011;9818;48.382;10.850;2022-09-13T07:15:07;1.10;;;1.00;;
19364;SDS011;9818;48.382;10.850;2022-09-13T07:17:37;2.13;;;1.05;;
19364;SDS011;9818;48.382;10.850;2022-09-13T07:20:06;1.60;;;1.00;;
19364;SDS011;9818;48.382;10.850;2022-09-13T07:22:38;2.22;;;1.17;;
19364;SDS011;9818;48.382;10.850;2022-09-13T07:25:07;1.30;;;1.00;;
19364;SDS011;9818;48.382;10.850;2022-09-13T07:27:37;2.50;;;1.15;;
19364;SDS011;9818;48.382;10.850;2022-09-13T07:30:06;1.23;;;0.80;;
19364;SDS011;9818;48.382;10.850;2022-09-13T07:32:35;1.45;;;1.00;;
19364;SDS011;9818;48.382;10.850;2022-09-13T07:35:04;1.37;;;1.00;;
19364;SDS011;9818;48.382;10.850;2022-09-13T07:37:33;1.30;;;1.03;;
19364;SDS011;9818;48.382;10.850;2022-09-13T07:40:05;1.07;;;1.00;;
19364;SDS011;9818;48.382;10.850;2022-09-13T07:42:35;1.37;;;0.90;;
19364;SDS011;9818;48.382;10.850;2022-09-13T07:45:04;1.10;;;1.00;;
19364;SDS011;9818;48.382;10.850;2022-09-13T07:47:33;1.00;;;0.90;;
19364;SDS011;9818;48.382;10.850;2022-09-13T07:50:02;0.98;;;0.98;;
19364;SDS011;9818;48.382;10.850;2022-09-13T07:52:31;0.93;;;0.93;;
19364;SDS011;9818;48.382;10.850;2022-09-13T07:55:04;1.00;;;0.90;;
19364;SDS011;9818;48.382;10.850;2022-09-13T07:57:34;1.17;;;1.00;;
19364;SDS011;9818;48.382;10.850;2022-09-13T08:00:03;1.42;;;1.10;;
19364;SDS011;9818;48.382;10.850;2022-09-13T08:02:32;0.90;;;0.90;;
19364;SDS011;9818;48.382;10.850;2022-09-13T08:05:01;2.08;;;1.13;;
19364;SDS011;9818;48.382;10.850;2022-09-13T08:07:30;1.83;;;1.15;;
19364;SDS011;9818;48.382;10.850;2022-09-13T08:09:58;3.00;;;1.00;;
19364;SDS011;9818;48.382;10.850;2022-09-13T08:12:30;4.50;;;1.10;;
19364;SDS011;9818;48.382;10.850;2022-09-13T08:14:58;1.58;;;1.00;;
19364;SDS011;9818;48.382;10.850;2022-09-13T08:17:27;1.15;;;1.00;;
19364;SDS011;9818;48.382;10.850;2022-09-13T08:19:56;1.50;;;1.10;;
19364;SDS011;9818;48.382;10.850;2022-09-13T08:22:25;1.05;;;0.80;;
19364;SDS011;9818;48.382;10.850;2022-09-13T08:24:54;1.05;;;0.95;;
19364;SDS011;9818;48.382;10.850;2022-09-13T08:27:23;0.80;;;0.65;;
19364;SDS011;9818;48.382;10.850;2022-09-13T08:29:54;4.93;;;1.08;;
19364;SDS011;9818;48.382;10.850;2022-09-13T08:32:23;0.82;;;0.80;;
19364;SDS011;9818;48.382;10.850;2022-09-13T08:34:51;0.90;;;0.90;;
19364;SDS011;9818;48.382;10.850;2022-09-13T08:37:20;1.00;;;0.90;;
19364;SDS011;9818;48.382;10.850;2022-09-13T08:39:49;2.25;;;0.90;;
19364;SDS011;9818;48.382;10.850;2022-09-13T08:42:19;1.92;;;0.82;;
19364;SDS011;9818;48.382;10.850;2022-09-13T08:44:57;1.73;;;1.00;;
19364;SDS011;9818;48.382;10.850;2022-09-13T08:47:29;0.80;;;0.80;;
19364;SDS011;9818;48.382;10.850;2022-09-13T08:50:12;1.00;;;0.80;;
19364;SDS011;9818;48.382;10.850;2022-09-13T08:52:49;3.17;;;1.10;;
19364;SDS011;9818;48.382;10.850;2022-09-13T08:55:28;2.97;;;1.10;;
19364;SDS011;9818;48.382;10.850;2022-09-13T08:58:11;0.73;;;0.73;;
19364;SDS011;9818;48.382;10.850;2022-09-13T09:01:05;1.98;;;1.00;;
19364;SDS011;9818;48.382;10.850;2022-09-13T09:03:40;2.28;;;0.90;;
19364;SDS011;9818;48.382;10.850;2022-09-13T09:06:13;1.23;;;0.95;;
19364;SDS011;9818;48.382;10.850;2022-09-13T09:08:44;2.38;;;0.90;;
19364;SDS011;9818;48.382;10.850;2022-09-13T09:11:19;1.02;;;0.90;;
19364;SDS011;9818;48.382;10.850;2022-09-13T09:13:56;1.25;;;0.80;;
19364;SDS011;9818;48.382;10.850;2022-09-13T09:16:35;1.10;;;0.80;;
19364;SDS011;9818;48.382;10.850;2022-09-13T09:19:13;1.52;;;0.98;;
19364;SDS011;9818;48.382;10.850;2022-09-13T09:21:48;1.42;;;1.10;;
19364;SDS011;9818;48.382;10.850;2022-09-13T09:24:18;1.35;;;1.00;;
19364;SDS011;9818;48.382;10.850;2022-09-13T09:26:50;0.77;;;0.77;;
19364;SDS011;9818;48.382;10.850;2022-09-13T09:29:21;1.55;;;1.13;;
19364;SDS011;9818;48.382;10.850;2022-09-13T09:31:57;2.20;;;0.93;;
19364;SDS011;9818;48.382;10.850;2022-09-13T09:34:42;2.10;;;1.00;;
19364;SDS011;9818;48.382;10.850;2022-09-13T09:49:50;1.42;;;0.93;;
19364;SDS011;9818;48.382;10.850;2022-09-13T09:52:39;3.05;;;0.82;;
19364;SDS011;9818;48.382;10.850;2022-09-13T09:55:16;1.05;;;0.95;;
19364;SDS011;9818;48.382;10.850;2022-09-13T09:57:54;1.20;;;0.90;;
19364;SDS011;9818;48.382;10.850;2022-09-13T10:00:25;1.10;;;1.00;;
19364;SDS011;9818;48.382;10.850;2022-09-13T10:02:59;2.58;;;1.02;;
19364;SDS011;9818;48.382;10.850;2022-09-13T10:05:31;1.00;;;0.90;;
19364;SDS011;9818;48.382;10.850;2022-09-13T10:08:03;1.25;;;0.90;;
19364;SDS011;9818;48.382;10.850;2022-09-13T10:10:37;1.00;;;0.82;;
19364;SDS011;9818;48.382;10.850;2022-09-13T10:13:12;2.65;;;0.80;;
19364;SDS011;9818;48.382;10.850;2022-09-13T10:15:51;0.90;;;0.90;;
19364;SDS011;9818;48.382;10.850;2022-09-13T11:25:34;0.85;;;0.82;;
19364;SDS011;9818;48.382;10.850;2022-09-13T11:28:13;2.65;;;1.00;;
19364;SDS011;9818;48.382;10.850;2022-09-13T11:30:50;1.48;;;0.85;;
19364;SDS011;9818;48.382;10.850;2022-09-13T11:33:43;0.95;;;0.85;;
19364;SDS011;9818;48.382;10.850;2022-09-13T11:36:42;1.27;;;1.00;;
19364;SDS011;9818;48.382;10.850;2022-09-13T11:39:34;1.15;;;1.00;;
19364;SDS011;9818;48.382;10.850;2022-09-13T12:28:23;1.90;;;1.10;;
19364;SDS011;9818;48.382;10.850;2022-09-13T12:30:55;2.22;;;0.88;;
19364;SDS011;9818;48.382;10.850;2022-09-13T14:18:43;0.80;;;0.80;;
19364;SDS011;9818;48.382;10.850;2022-09-13T14:21:24;0.85;;;0.70;;
19364;SDS011;9818;48.382;10.850;2022-09-13T14:24:07;2.78;;;0.70;;
19364;SDS011;9818;48.382;10.850;2022-09-13T14:26:42;5.10;;;1.00;;
19364;SDS011;9818;48.382;10.850;2022-09-13T14:29:16;0.80;;;0.80;;
19364;SDS011;9818;48.382;10.850;2022-09-13T14:31:46;0.60;;;0.60;;
19364;SDS011;9818;48.382;10.850;2022-09-13T14:34:19;1.23;;;0.70;;
19364;SDS011;9818;48.382;10.850;2022-09-13T14:36:52;0.70;;;0.70;;
19364;SDS011;9818;48.382;10.850;2022-09-13T14:39:22;0.50;;;0.50;;
19364;SDS011;9818;48.382;10.850;2022-09-13T14:41:56;2.33;;;0.90;;
19364;SDS011;9818;48.382;10.850;2022-09-13T14:44:29;0.70;;;0.70;;
19364;SDS011;9818;48.382;10.850;2022-09-13T14:47:03;0.63;;;0.63;;
19364;SDS011;9818;48.382;10.850;2022-09-13T14:49:37;1.10;;;0.70;;
19364;SDS011;9818;48.382;10.850;2022-09-13T14:52:10;0.70;;;0.70;;
19364;SDS011;9818;48.382;10.850;2022-09-13T14:54:48;0.98;;;0.73;;
19364;SDS011;9818;48.382;10.850;2022-09-13T14:57:22;1.92;;;1.00;;
19364;SDS011;9818;48.382;10.850;2022-09-13T15:00:00;1.70;;;1.10;;
19364;SDS011;9818;48.382;10.850;2022-09-13T15:02:35;1.30;;;0.60;;
19364;SDS011;9818;48.382;10.850;2022-09-13T15:05:07;1.02;;;0.90;;
19364;SDS011;9818;48.382;10.850;2022-09-13T15:07:41;0.90;;;0.90;;
19364;SDS011;9818;48.382;10.850;2022-09-13T15:10:19;0.70;;;0.70;;
19364;SDS011;9818;48.382;10.850;2022-09-13T15:12:53;1.58;;;0.70;;
19364;SDS011;9818;48.382;10.850;2022-09-13T15:15:35;0.82;;;0.80;;
19364;SDS011;9818;48.382;10.850;2022-09-13T15:18:20;1.17;;;0.90;;
19364;SDS011;9818;48.382;10.850;2022-09-13T15:20:51;0.63;;;0.63;;
19364;SDS011;9818;48.382;10.850;2022-09-13T15:23:23;0.82;;;0.80;;
19364;SDS011;9818;48.382;10.850;2022-09-13T15:25:54;0.70;;;0.70;;
19364;SDS011;9818;48.382;10.850;2022-09-13T15:38:55;0.82;;;0.80;;
19364;SDS011;9818;48.382;10.850;2022-09-13T15:41:27;1.35;;;0.80;;
19364;SDS011;9818;48.382;10.850;2022-09-13T15:43:58;2.03;;;0.77;;
19364;SDS011;9818;48.382;10.850;2022-09-13T15:46:31;1.10;;;1.00;;
19364;SDS011;9818;48.382;10.850;2022-09-13T15:49:11;1.98;;;1.10;;
19364;SDS011;9818;48.382;10.850;2022-09-13T15:51:43;1.67;;;1.08;;
19364;SDS011;9818;48.382;10.850;2022-09-13T15:54:12;1.88;;;1.10;;
19364;SDS011;9818;48.382;10.850;2022-09-13T15:56:43;1.60;;;0.93;;
19364;SDS011;9818;48.382;10.850;2022-09-13T15:59:15;1.23;;;1.00;;
19364;SDS011;9818;48.382;10.850;2022-09-13T16:01:49;1.20;;;1.10;;
19364;SDS011;9818;48.382;10.850;2022-09-13T16:04:19;5.30;;;1.10;;
19364;SDS011;9818;48.382;10.850;2022-09-13T16:06:49;2.20;;;1.17;;
19364;SDS011;9818;48.382;10.850;2022-09-13T16:09:18;1.73;;;1.23;;
19364;SDS011;9818;48.382;10.850;2022-09-13T16:11:48;1.20;;;1.10;;
19364;SDS011;9818;48.382;10.850;2022-09-13T16:14:18;3.42;;;1.10;;
19364;SDS011;9818;48.382;10.850;2022-09-13T16:16:49;0.90;;;0.85;;
19364;SDS011;9818;48.382;10.850;2022-09-13T16:19:19;3.07;;;1.10;;
19364;SDS011;9818;48.382;10.850;2022-09-13T16:21:50;2.77;;;1.00;;
19364;SDS011;9818;48.382;10.850;2022-09-13T16:24:18;1.60;;;1.10;;
19364;SDS011;9818;48.382;10.850;2022-09-13T16:26:47;3.60;;;1.00;;
19364;SDS011;9818;48.382;10.850;2022-09-13T16:29:16;1.47;;;0.90;;
19364;SDS011;9818;48.382;10.850;2022-09-13T16:34:15;2.45;;;1.20;;
